Time;durP1;ratioP1;P1;durP2;ratioP2;P2;SDS_P1;SDS_P2;PMS_P1;PMS_P2;Temp;Humidity;BMP_temperature;BMP_pressure;BME280_temperature;BME280_humidity;BME280_pressure;Samples;Min_cycle;Max_cycle;Signal;HPM_P1;HPM_P2
2023/04/27 00:00:29;;;;;;;13.30;4.10;;;10.10;84.90;;;;;;5011386;28;20069;-72
2023/04/27 00:02:55;;;;;;;6.60;3.60;;;10.00;85.50;;;;;;5011251;28;20041;-72
2023/04/27 00:05:21;;;;;;;10.02;4.10;;;10.00;85.50;;;;;;5010993;28;20483;-72
2023/04/27 00:07:47;;;;;;;11.43;3.53;;;10.10;84.90;;;;;;5011740;28;20022;-72
2023/04/27 00:10:12;;;;;;;9.57;3.80;;;10.20;84.70;;;;;;5011223;28;20084;-72
2023/04/27 00:12:38;;;;;;;13.32;3.83;;;9.80;86.20;;;;;;5011381;28;20052;-73
2023/04/27 00:15:05;;;;;;;12.85;3.58;;;9.80;86.50;;;;;;5010263;28;20404;-72
2023/04/27 00:17:31;;;;;;;11.73;3.53;;;9.90;86.40;;;;;;5010879;28;20140;-72
2023/04/27 00:19:57;;;;;;;11.02;3.38;;;10.10;84.90;;;;;;5011322;28;20519;-71
2023/04/27 00:22:23;;;;;;;7.28;3.28;;;9.90;86.20;;;;;;5011353;28;20060;-71
2023/04/27 00:24:48;;;;;;;8.10;3.20;;;9.90;86.00;;;;;;5011321;28;20139;-72
2023/04/27 00:27:14;;;;;;;12.93;3.40;;;9.90;86.20;;;;;;5010736;28;20050;-71
2023/04/27 00:29:41;;;;;;;7.97;2.90;;;9.90;85.80;;;;;;5010931;28;20038;-72
2023/04/27 00:32:09;;;;;;;9.25;3.70;;;9.90;85.90;;;;;;5009947;28;20030;-73
2023/04/27 00:34:35;;;;;;;6.60;3.15;;;9.70;86.60;;;;;;5011720;28;20023;-73
2023/04/27 00:37:01;;;;;;;11.88;4.55;;;9.90;86.80;;;;;;5010876;28;20371;-72
2023/04/27 00:39:26;;;;;;;12.02;4.15;;;10.00;85.00;;;;;;5011063;28;20121;-72
2023/04/27 00:41:52;;;;;;;7.57;3.65;;;9.90;86.20;;;;;;5010926;28;20425;-73
2023/04/27 00:44:25;;;;;;;11.57;3.85;;;9.90;86.30;;;;;;5010729;28;20034;-73
2023/04/27 00:46:52;;;;;;;7.15;4.35;;;9.60;87.30;;;;;;5011092;28;20049;-71
2023/04/27 00:49:21;;;;;;;8.15;3.83;;;9.80;87.20;;;;;;5014751;28;20400;-72
2023/04/27 00:51:49;;;;;;;12.48;4.63;;;9.80;87.00;;;;;;5014713;28;20391;-71
2023/04/27 00:54:18;;;;;;;12.60;4.30;;;9.80;87.00;;;;;;5014760;28;20456;-74
2023/04/27 00:56:46;;;;;;;10.50;4.32;;;9.80;87.00;;;;;;5013642;28;20124;-72
2023/04/27 00:59:12;;;;;;;12.32;4.38;;;9.80;87.00;;;;;;5014647;28;20042;-71
2023/04/27 01:01:38;;;;;;;11.00;3.80;;;9.90;87.00;;;;;;5015032;28;20460;-72
2023/04/27 01:04:03;;;;;;;10.43;4.55;;;9.90;87.10;;;;;;5014399;28;20026;-73
2023/04/27 01:06:30;;;;;;;12.77;3.90;;;9.90;87.10;;;;;;5014396;28;20088;-73
2023/04/27 01:08:56;;;;;;;11.85;3.83;;;9.70;87.70;;;;;;5014534;28;20043;-73
2023/04/27 01:11:22;;;;;;;16.00;3.83;;;9.80;87.30;;;;;;5014604;28;20030;-72
2023/04/27 01:13:48;;;;;;;7.85;3.67;;;9.80;86.80;;;;;;5014879;28;20070;-72
2023/04/27 01:16:17;;;;;;;9.95;3.35;;;9.80;87.10;;;;;;5014351;28;20376;-72
2023/04/27 01:18:43;;;;;;;7.47;3.58;;;9.80;87.00;;;;;;5014262;28;20026;-72
2023/04/27 01:21:09;;;;;;;11.90;4.13;;;9.70;87.20;;;;;;5014168;28;20046;-72
2023/04/27 01:23:35;;;;;;;8.63;3.50;;;9.50;87.50;;;;;;5014024;28;20133;-73
2023/04/27 01:26:00;;;;;;;13.55;3.80;;;9.50;88.00;;;;;;5013850;28;20118;-72
2023/04/27 01:28:26;;;;;;;16.60;3.75;;;9.50;88.10;;;;;;5014345;28;20524;-73
2023/04/27 01:30:52;;;;;;;10.80;3.97;;;9.50;87.90;;;;;;5014487;28;20491;-73
2023/04/27 01:33:17;;;;;;;13.15;3.80;;;9.50;87.70;;;;;;5014089;28;20041;-72
2023/04/27 01:35:43;;;;;;;9.15;3.95;;;9.50;87.80;;;;;;5021128;28;20049;-73
2023/04/27 01:38:09;;;;;;;6.88;3.15;;;9.50;87.90;;;;;;5033611;28;20045;-73
2023/04/27 01:40:34;;;;;;;10.45;4.72;;;9.30;88.70;;;;;;5034006;28;20031;-73
2023/04/27 01:43:00;;;;;;;6.70;3.95;;;9.20;89.30;;;;;;5033582;28;20064;-73
2023/04/27 01:45:26;;;;;;;9.02;3.25;;;9.10;89.50;;;;;;5033757;28;20044;-72
2023/04/27 01:47:52;;;;;;;5.05;3.20;;;9.10;90.00;;;;;;5033450;28;20076;-72
2023/04/27 01:50:18;;;;;;;9.80;4.05;;;9.10;89.80;;;;;;5033469;28;20037;-72
2023/04/27 01:52:44;;;;;;;10.65;4.22;;;9.10;89.70;;;;;;5034175;28;20326;-73
2023/04/27 01:55:10;;;;;;;11.20;3.67;;;9.30;89.30;;;;;;5033367;28;20033;-72
2023/04/27 01:57:36;;;;;;;10.60;3.53;;;8.90;90.10;;;;;;5032502;28;20632;-73
2023/04/27 02:00:03;;;;;;;9.10;3.28;;;9.00;90.00;;;;;;5032734;28;20431;-73
2023/04/27 02:02:29;;;;;;;13.75;4.38;;;8.90;90.10;;;;;;5033295;28;20048;-74
2023/04/27 02:04:55;;;;;;;10.70;3.55;;;8.90;90.10;;;;;;5033211;28;20025;-74
2023/04/27 02:07:20;;;;;;;13.98;3.60;;;8.90;90.00;;;;;;5032334;28;20526;-74
2023/04/27 02:09:46;;;;;;;8.35;3.63;;;8.70;90.20;;;;;;5033253;28;20029;-74
2023/04/27 02:12:12;;;;;;;9.00;4.88;;;8.60;90.30;;;;;;5032011;28;20490;-73
2023/04/27 02:14:37;;;;;;;8.68;3.55;;;8.70;90.30;;;;;;5033136;28;20094;-72
2023/04/27 02:17:03;;;;;;;10.60;4.18;;;8.60;90.40;;;;;;5033286;28;20451;-73
2023/04/27 02:19:28;;;;;;;11.73;3.80;;;8.50;90.50;;;;;;5033448;28;20138;-74
2023/04/27 02:21:54;;;;;;;12.45;3.80;;;8.50;90.30;;;;;;5032196;28;20108;-72
2023/04/27 02:24:20;;;;;;;10.05;3.75;;;8.60;90.20;;;;;;5032756;28;20049;-73
2023/04/27 02:26:46;;;;;;;6.78;3.00;;;8.40;90.50;;;;;;5031710;28;20526;-74
2023/04/27 02:29:11;;;;;;;6.85;3.13;;;8.70;90.40;;;;;;5033049;28;20041;-74
2023/04/27 02:31:37;;;;;;;11.68;3.85;;;8.60;90.20;;;;;;5032308;28;20027;-74
2023/04/27 02:34:02;;;;;;;10.70;3.33;;;8.60;90.20;;;;;;5033166;28;20039;-72
2023/04/27 02:36:28;;;;;;;9.80;3.25;;;8.50;90.50;;;;;;5033087;28;20179;-73
2023/04/27 02:38:54;;;;;;;6.93;3.70;;;8.40;90.60;;;;;;5032674;28;20026;-72
2023/04/27 02:41:19;;;;;;;9.13;3.95;;;8.50;90.40;;;;;;5032650;28;20041;-73
2023/04/27 02:43:45;;;;;;;12.82;4.10;;;8.60;90.40;;;;;;5033216;28;20021;-71
2023/04/27 02:46:12;;;;;;;10.88;4.20;;;8.50;90.40;;;;;;5031452;28;20414;-73
2023/04/27 02:48:38;;;;;;;13.88;4.18;;;8.50;90.40;;;;;;5032466;28;20044;-72
2023/04/27 02:51:04;;;;;;;11.85;4.13;;;8.50;90.60;;;;;;5032504;28;20034;-72
2023/04/27 02:53:30;;;;;;;15.07;4.00;;;8.50;90.60;;;;;;5032123;28;20037;-73
2023/04/27 02:55:57;;;;;;;8.77;4.35;;;8.50;90.80;;;;;;5032299;28;20022;-74
2023/04/27 02:58:23;;;;;;;11.77;4.43;;;8.40;90.70;;;;;;5032721;28;20128;-72
2023/04/27 03:00:53;;;;;;;8.35;4.22;;;8.40;90.80;;;;;;5032270;28;20053;-71
2023/04/27 03:03:19;;;;;;;13.15;3.85;;;8.20;91.00;;;;;;5032224;28;20482;-72
2023/04/27 03:05:45;;;;;;;14.00;3.65;;;8.30;91.10;;;;;;5032058;28;20342;-72
2023/04/27 03:08:11;;;;;;;7.40;3.45;;;8.20;91.20;;;;;;5032098;28;20507;-71
2023/04/27 03:10:36;;;;;;;8.75;3.55;;;8.40;90.90;;;;;;5030747;28;20340;-72
2023/04/27 03:13:02;;;;;;;8.57;3.90;;;8.30;91.00;;;;;;5032499;28;20033;-73
2023/04/27 03:15:28;;;;;;;13.25;4.78;;;8.30;91.00;;;;;;5032195;28;20029;-72
2023/04/27 03:17:53;;;;;;;15.02;4.05;;;8.20;91.60;;;;;;5031731;28;20040;-72
2023/04/27 03:20:20;;;;;;;15.05;3.50;;;8.20;91.40;;;;;;5031866;28;20026;-72
2023/04/27 03:22:46;;;;;;;8.90;3.85;;;8.40;91.30;;;;;;5032092;28;20100;-71
2023/04/27 03:25:12;;;;;;;11.43;3.80;;;8.30;91.40;;;;;;5031581;28;20116;-71
2023/04/27 03:27:38;;;;;;;6.47;4.40;;;8.30;91.40;;;;;;5031735;28;20124;-72
2023/04/27 03:30:04;;;;;;;17.33;4.65;;;8.20;91.50;;;;;;5031722;28;20191;-72
2023/04/27 03:32:30;;;;;;;9.38;4.20;;;8.10;91.90;;;;;;5031644;28;20037;-72
2023/04/27 03:34:55;;;;;;;12.93;4.10;;;8.00;92.10;;;;;;5030449;28;20036;-71
2023/04/27 03:37:21;;;;;;;14.30;4.20;;;8.00;92.30;;;;;;5031905;28;20021;-72
2023/04/27 03:39:47;;;;;;;10.23;4.63;;;8.00;92.30;;;;;;5030788;28;20060;-73
2023/04/27 03:42:12;;;;;;;6.43;4.10;;;8.00;92.20;;;;;;5031796;28;20030;-72
2023/04/27 03:44:38;;;;;;;9.77;4.20;;;8.20;92.20;;;;;;5031441;28;20041;-73
2023/04/27 03:47:08;;;;;;;10.32;4.38;;;8.00;92.20;;;;;;5031387;28;20041;-71
2023/04/27 03:49:37;;;;;;;10.48;4.50;;;8.00;92.40;;;;;;5032141;28;20108;-72
2023/04/27 03:52:03;;;;;;;13.13;4.63;;;8.10;92.40;;;;;;5031360;28;20041;-72
2023/04/27 03:54:30;;;;;;;13.52;4.88;;;8.00;92.40;;;;;;5031219;28;20030;-72
2023/04/27 03:56:56;;;;;;;16.02;4.25;;;7.90;92.60;;;;;;5031282;28;20087;-72
2023/04/27 03:59:22;;;;;;;13.48;5.03;;;7.90;92.70;;;;;;5031283;28;20450;-72
2023/04/27 04:01:47;;;;;;;19.42;4.93;;;7.90;92.60;;;;;;5030678;28;20051;-72
2023/04/27 04:04:13;;;;;;;13.52;5.38;;;7.80;92.70;;;;;;5031009;28;20037;-72
2023/04/27 04:06:38;;;;;;;14.30;5.20;;;7.70;93.00;;;;;;5030918;28;20040;-72
2023/04/27 04:09:04;;;;;;;13.05;4.60;;;7.70;93.00;;;;;;5030930;28;20034;-73
2023/04/27 04:11:30;;;;;;;14.18;4.82;;;7.70;93.10;;;;;;5030796;28;20037;-72
2023/04/27 04:13:55;;;;;;;11.23;4.82;;;7.60;93.20;;;;;;5030753;28;20440;-72
2023/04/27 04:16:21;;;;;;;12.07;5.10;;;7.60;93.40;;;;;;5031574;28;20035;-73
2023/04/27 04:18:47;;;;;;;14.57;4.40;;;7.60;93.10;;;;;;5030831;28;20041;-73
2023/04/27 04:21:13;;;;;;;14.80;4.32;;;7.60;93.10;;;;;;5029587;28;20433;-74
2023/04/27 04:23:41;;;;;;;9.68;4.03;;;7.60;93.10;;;;;;5030705;28;20033;-73
2023/04/27 04:26:07;;;;;;;12.18;4.57;;;7.70;93.20;;;;;;5030338;28;20549;-74
2023/04/27 04:28:33;;;;;;;14.25;4.85;;;7.40;93.20;;;;;;5031019;28;20098;-73
2023/04/27 04:31:02;;;;;;;14.18;4.97;;;7.60;93.30;;;;;;5030702;28;20022;-73
2023/04/27 04:33:28;;;;;;;12.90;4.70;;;7.70;93.20;;;;;;5030821;28;20040;-73
2023/04/27 04:35:53;;;;;;;14.90;4.55;;;7.60;93.10;;;;;;5030933;28;20033;-73
2023/04/27 04:38:19;;;;;;;11.20;4.38;;;7.60;93.20;;;;;;5030677;28;20056;-73
2023/04/27 04:40:45;;;;;;;10.23;3.92;;;7.60;93.30;;;;;;5031013;28;20377;-74
2023/04/27 04:43:11;;;;;;;9.13;4.43;;;7.70;93.30;;;;;;5030700;28;20048;-74
2023/04/27 04:45:36;;;;;;;24.83;5.43;;;7.60;93.20;;;;;;5029542;28;20121;-74
2023/04/27 04:48:03;;;;;;;8.68;4.82;;;7.50;93.40;;;;;;5030485;28;20136;-74
2023/04/27 04:50:28;;;;;;;16.65;5.22;;;7.40;93.60;;;;;;5030730;28;20045;-73
2023/04/27 04:52:54;;;;;;;22.05;5.35;;;7.30;93.80;;;;;;5030345;28;20017;-73
2023/04/27 04:55:20;;;;;;;17.83;5.28;;;7.50;93.70;;;;;;5030853;28;20022;-74
2023/04/27 04:57:46;;;;;;;10.10;5.00;;;7.60;93.60;;;;;;5030431;28;20026;-74
2023/04/27 05:00:12;;;;;;;9.90;5.15;;;7.40;94.00;;;;;;5029244;28;20468;-75
2023/04/27 05:02:39;;;;;;;11.57;5.38;;;7.40;93.70;;;;;;5030269;28;20034;-74
2023/04/27 05:05:05;;;;;;;10.50;4.68;;;7.40;93.60;;;;;;5030115;28;20029;-74
2023/04/27 05:07:31;;;;;;;13.85;5.22;;;7.50;93.60;;;;;;5030689;28;20018;-73
2023/04/27 05:09:57;;;;;;;10.63;4.88;;;7.50;93.50;;;;;;5029306;28;20038;-73
2023/04/27 05:12:23;;;;;;;14.77;4.78;;;7.50;93.50;;;;;;5030208;28;20029;-72
2023/04/27 05:14:50;;;;;;;12.32;5.53;;;7.40;93.60;;;;;;5030220;28;20037;-72
2023/04/27 05:17:15;;;;;;;14.13;4.88;;;7.50;93.70;;;;;;5029198;28;20060;-73
2023/04/27 05:19:41;;;;;;;10.88;5.40;;;7.40;93.70;;;;;;5030796;28;20053;-72
2023/04/27 05:22:06;;;;;;;10.63;5.00;;;7.50;93.60;;;;;;5030538;28;20037;-72
2023/04/27 05:24:32;;;;;;;13.25;5.07;;;7.50;93.60;;;;;;5030120;28;20091;-72
2023/04/27 05:26:58;;;;;;;17.58;5.70;;;7.50;93.60;;;;;;5029836;28;20045;-73
2023/04/27 05:29:23;;;;;;;14.75;5.30;;;7.60;93.50;;;;;;5030049;28;20037;-72
2023/04/27 05:31:49;;;;;;;12.75;5.00;;;7.80;93.30;;;;;;5029769;28;20332;-71
2023/04/27 05:34:15;;;;;;;11.20;5.28;;;7.90;93.10;;;;;;5031868;28;20486;-71
2023/04/27 05:36:41;;;;;;;12.10;5.18;;;7.90;93.10;;;;;;5033630;28;20029;-72
2023/04/27 05:39:06;;;;;;;15.38;5.60;;;7.90;92.90;;;;;;5033629;28;20037;-72
2023/04/27 05:41:32;;;;;;;8.57;4.22;;;8.00;92.80;;;;;;5033537;28;20120;-71
2023/04/27 05:43:58;;;;;;;15.63;5.47;;;8.10;92.70;;;;;;5033421;28;20156;-71
2023/04/27 05:46:23;;;;;;;15.77;5.22;;;8.10;92.70;;;;;;5033012;28;20434;-72
2023/04/27 05:48:49;;;;;;;7.75;4.55;;;8.10;92.80;;;;;;5033351;28;20025;-72
2023/04/27 05:51:15;;;;;;;15.15;4.97;;;8.10;93.10;;;;;;5033382;28;20285;-70
2023/04/27 05:53:41;;;;;;;11.52;4.78;;;8.20;92.80;;;;;;5033212;28;20033;-71
2023/04/27 05:56:07;;;;;;;17.17;5.45;;;8.30;92.50;;;;;;5033283;28;20112;-71
2023/04/27 05:58:33;;;;;;;11.93;4.68;;;8.30;92.40;;;;;;5033487;28;20105;-72
2023/04/27 06:01:00;;;;;;;15.75;5.45;;;8.30;92.20;;;;;;5033517;28;20052;-71
2023/04/27 06:03:25;;;;;;;10.90;4.90;;;8.40;92.40;;;;;;5033417;28;20030;-71
2023/04/27 06:05:55;;;;;;;8.75;4.63;;;8.30;92.60;;;;;;5032176;28;20041;-73
2023/04/27 06:08:21;;;;;;;17.10;5.85;;;8.30;92.60;;;;;;5033109;28;20060;-72
2023/04/27 06:10:46;;;;;;;11.10;4.50;;;8.40;92.30;;;;;;5033729;28;20443;-70
2023/04/27 06:13:12;;;;;;;12.75;5.00;;;8.50;92.50;;;;;;5033014;28;20029;-71
2023/04/27 06:15:38;;;;;;;12.80;4.25;;;8.40;92.70;;;;;;5033303;28;20087;-71
2023/04/27 06:18:04;;;;;;;13.82;4.82;;;8.40;92.60;;;;;;5033179;28;20029;-71
2023/04/27 06:20:30;;;;;;;17.17;4.45;;;8.50;92.50;;;;;;5033127;28;20064;-70
2023/04/27 06:22:57;;;;;;;10.70;4.38;;;8.60;92.50;;;;;;5032482;28;20028;-72
2023/04/27 06:25:23;;;;;;;14.53;5.10;;;8.60;92.30;;;;;;5033210;28;20207;-72
2023/04/27 06:27:48;;;;;;;15.02;4.68;;;8.60;92.30;;;;;;5032890;28;20289;-71
2023/04/27 06:30:15;;;;;;;9.25;4.53;;;8.70;92.20;;;;;;5031661;28;20030;-71
2023/04/27 06:32:41;;;;;;;7.47;4.03;;;8.80;92.10;;;;;;5032811;28;20463;-71
2023/04/27 06:35:07;;;;;;;18.88;4.50;;;8.80;91.90;;;;;;5032626;28;20047;-71
2023/04/27 06:37:32;;;;;;;11.77;3.70;;;8.80;91.60;;;;;;5033193;28;20096;-72
2023/04/27 06:39:58;;;;;;;8.35;3.50;;;8.90;91.50;;;;;;5032732;28;20031;-72
2023/04/27 06:42:23;;;;;;;9.05;3.47;;;8.90;91.30;;;;;;5032320;28;20029;-74
2023/04/27 06:44:53;;;;;;;17.23;5.35;;;8.90;91.20;;;;;;5031604;28;20052;-72
2023/04/27 06:47:20;;;;;;;14.90;4.40;;;9.00;91.20;;;;;;5032231;28;20121;-72
2023/04/27 06:49:45;;;;;;;9.27;3.72;;;9.10;91.10;;;;;;5032966;28;20159;-70
2023/04/27 06:52:11;;;;;;;6.88;3.22;;;9.20;90.90;;;;;;5032452;28;20116;-71
2023/04/27 06:54:37;;;;;;;9.70;2.95;;;9.30;91.00;;;;;;5032239;28;20459;-71
2023/04/27 06:57:02;;;;;;;20.80;3.78;;;9.80;90.80;;;;;;5032400;28;20132;-73
2023/04/27 06:59:28;;;;;;;13.82;4.25;;;10.60;90.20;;;;;;5032189;28;20037;-74
2023/04/27 07:01:53;;;;;;;8.88;3.10;;;11.20;87.40;;;;;;5031934;28;20176;-74
2023/04/27 07:04:19;;;;;;;11.82;3.50;;;11.50;86.40;;;;;;5032598;28;20102;-73
2023/04/27 07:06:45;;;;;;;8.85;3.85;;;11.80;85.70;;;;;;5031909;28;20041;-72
2023/04/27 07:09:11;;;;;;;7.18;3.00;;;12.00;84.90;;;;;;5031951;28;20367;-73
2023/04/27 07:11:36;;;;;;;10.43;2.80;;;12.60;84.20;;;;;;5030900;28;20088;-72
2023/04/27 07:14:02;;;;;;;7.82;2.55;;;12.90;83.30;;;;;;5031558;28;20390;-73
2023/04/27 07:16:28;;;;;;;6.95;2.70;;;13.50;81.40;;;;;;5032259;28;20091;-72
2023/04/27 07:18:54;;;;;;;5.43;2.40;;;13.70;78.30;;;;;;5031691;28;20112;-71
2023/04/27 07:21:20;;;;;;;5.53;2.28;;;13.90;79.60;;;;;;5032481;28;20101;-71
2023/04/27 07:23:45;;;;;;;3.75;1.88;;;14.10;76.80;;;;;;5032148;28;20367;-73
2023/04/27 07:26:11;;;;;;;6.20;2.20;;;14.20;76.20;;;;;;5032115;28;20497;-72
2023/04/27 07:28:38;;;;;;;6.55;2.53;;;14.60;76.40;;;;;;5033295;28;20040;-70
2023/04/27 07:31:05;;;;;;;8.07;1.50;;;15.00;74.60;;;;;;5032416;28;20036;-70
2023/04/27 07:33:32;;;;;;;18.63;2.15;;;15.30;71.50;;;;;;5031825;28;20037;-69
2023/04/27 07:35:58;;;;;;;3.33;1.45;;;15.90;70.10;;;;;;5031713;28;20038;-70
2023/04/27 07:38:24;;;;;;;4.38;1.55;;;16.30;69.10;;;;;;5031369;28;20105;-71
2023/04/27 07:40:51;;;;;;;4.28;1.75;;;15.60;66.00;;;;;;5032733;28;20021;-71
2023/04/27 07:43:17;;;;;;;8.15;1.63;;;15.70;65.90;;;;;;5032066;28;20073;-71
2023/04/27 07:45:44;;;;;;;8.50;2.08;;;16.30;66.50;;;;;;5032193;28;20029;-71
2023/04/27 07:48:10;;;;;;;5.20;1.60;;;16.40;63.40;;;;;;5031475;28;20037;-70
2023/04/27 07:50:36;;;;;;;4.60;1.23;;;15.70;63.50;;;;;;5032348;28;20087;-71
2023/04/27 07:53:02;;;;;;;5.88;1.60;;;16.60;62.60;;;;;;5031658;28;20100;-70
2023/04/27 07:55:27;;;;;;;4.88;1.55;;;17.50;63.30;;;;;;5032038;28;20436;-73
2023/04/27 07:57:55;;;;;;;6.50;1.85;;;17.80;60.20;;;;;;5030483;28;20113;-71
2023/04/27 08:00:21;;;;;;;6.78;1.48;;;17.40;58.90;;;;;;5030858;28;20175;-72
2023/04/27 08:02:46;;;;;;;5.50;1.70;;;18.70;59.10;;;;;;5029915;28;20377;-70
2023/04/27 08:05:12;;;;;;;5.88;1.25;;;19.70;57.30;;;;;;5030590;28;20040;-72
2023/04/27 08:07:39;;;;;;;6.55;2.10;;;20.40;56.50;;;;;;5031316;28;20037;-71
2023/04/27 08:10:06;;;;;;;7.25;1.88;;;21.10;56.20;;;;;;5031075;28;20176;-71
2023/04/27 08:12:32;;;;;;;6.43;2.10;;;20.70;53.40;;;;;;5029644;28;20041;-71
2023/04/27 08:14:58;;;;;;;7.30;1.80;;;20.50;53.00;;;;;;5030636;28;20033;-70
2023/04/27 08:17:24;;;;;;;5.47;1.50;;;19.60;52.50;;;;;;5030641;28;20462;-72
2023/04/27 08:19:50;;;;;;;5.25;1.73;;;19.20;53.70;;;;;;5031378;28;20026;-71
2023/04/27 08:22:15;;;;;;;6.78;1.45;;;19.70;52.80;;;;;;5031577;28;20040;-70
2023/04/27 08:24:41;;;;;;;4.15;1.17;;;20.40;51.50;;;;;;5031694;28;20037;-71
2023/04/27 08:27:07;;;;;;;7.38;1.67;;;21.50;49.40;;;;;;5032143;28;20057;-70
2023/04/27 08:29:33;;;;;;;20.10;1.98;;;22.30;48.00;;;;;;5031692;28;20042;-71
2023/04/27 08:32:00;;;;;;;3.10;1.20;;;23.20;47.50;;;;;;5031883;28;20087;-72
2023/04/27 08:34:27;;;;;;;4.28;1.63;;;23.40;44.00;;;;;;5032467;28;20499;-72
2023/04/27 08:36:53;;;;;;;2.83;1.40;;;22.80;43.50;;;;;;5032061;28;20338;-73
2023/04/27 08:39:19;;;;;;;3.58;1.50;;;23.90;44.80;;;;;;5031329;28;20052;-73
2023/04/27 08:41:45;;;;;;;5.57;1.80;;;24.60;44.90;;;;;;5031200;28;20237;-70
2023/04/27 08:44:11;;;;;;;9.35;2.85;;;24.30;42.60;;;;;;5031821;28;20025;-72
2023/04/27 08:46:37;;;;;;;7.25;2.25;;;24.20;44.10;;;;;;5030781;28;20478;-71
2023/04/27 08:49:03;;;;;;;5.60;2.17;;;23.50;42.50;;;;;;5031265;28;20061;-73
2023/04/27 08:51:31;;;;;;;6.03;1.75;;;21.80;42.40;;;;;;5031527;28;20428;-72
2023/04/27 08:53:58;;;;;;;5.05;2.03;;;21.20;43.30;;;;;;5032611;28;20434;-72
2023/04/27 08:56:26;;;;;;;5.82;2.10;;;22.90;44.40;;;;;;5030470;28;20511;-71
2023/04/27 08:58:52;;;;;;;4.88;1.98;;;24.30;43.10;;;;;;5030890;28;20592;-72
2023/04/27 09:01:18;;;;;;;14.23;3.38;;;25.40;41.00;;;;;;5032263;28;20108;-73
2023/04/27 09:03:47;;;;;;;8.43;1.65;;;26.40;40.70;;;;;;5030836;28;20363;-72
2023/04/27 09:06:14;;;;;;;7.03;2.75;;;26.50;39.90;;;;;;5030318;28;20121;-73
2023/04/27 09:08:45;;;;;;;2.60;1.50;;;26.40;40.00;;;;;;5031557;28;20483;-74
2023/04/27 09:11:12;;;;;;;2.22;1.10;;;27.00;39.00;;;;;;5033989;28;20025;-70
2023/04/27 09:13:39;;;;;;;2.10;1.40;;;27.50;37.30;;;;;;5033476;28;20029;-73
2023/04/27 09:16:05;;;;;;;5.05;2.10;;;27.10;36.90;;;;;;5033892;28;20033;-74
2023/04/27 09:18:35;;;;;;;3.47;1.33;;;27.00;36.90;;;;;;5034046;28;20387;-72
2023/04/27 09:21:03;;;;;;;4.32;1.58;;;26.80;36.50;;;;;;5034031;28;20057;-73
2023/04/27 09:23:33;;;;;;;4.25;1.50;;;26.90;35.80;;;;;;5033973;28;20029;-73
2023/04/27 09:26:00;;;;;;;4.63;1.83;;;26.10;34.90;;;;;;5033686;28;20106;-72
2023/04/27 09:28:28;;;;;;;3.92;1.42;;;25.40;35.80;;;;;;5034262;28;20469;-73
2023/04/27 09:30:55;;;;;;;5.80;2.42;;;24.20;36.60;;;;;;5033719;28;20026;-71
2023/04/27 09:33:25;;;;;;;7.43;1.85;;;23.70;37.20;;;;;;5032655;28;20029;-71
2023/04/27 09:35:51;;;;;;;8.18;1.95;;;22.10;38.00;;;;;;5034410;28;20029;-70
2023/04/27 09:38:18;;;;;;;7.10;2.00;;;20.50;39.80;;;;;;5035015;28;20501;-72
2023/04/27 09:40:44;;;;;;;7.40;1.75;;;20.50;40.70;;;;;;5034779;28;20443;-70
2023/04/27 09:43:11;;;;;;;3.45;1.55;;;20.30;40.30;;;;;;5032945;28;20043;-71
2023/04/27 09:45:37;;;;;;;3.55;1.50;;;20.00;38.20;;;;;;5034253;28;20053;-71
2023/04/27 09:48:04;;;;;;;3.60;1.50;;;20.00;38.00;;;;;;5033817;28;20037;-68
2023/04/27 09:50:34;;;;;;;6.65;3.65;;;20.80;40.40;;;;;;5033337;28;20103;-67
2023/04/27 09:52:59;;;;;;;6.13;2.95;;;22.70;38.70;;;;;;5033389;28;20040;-68
2023/04/27 09:55:39;;;;;;;3.25;1.27;;;23.70;37.00;;;;;;5033716;28;20022;-68
2023/04/27 09:58:31;;;;;;;3.25;1.58;;;24.40;36.10;;;;;;5031948;28;20085;-74
2023/04/27 10:01:12;;;;;;;3.28;1.40;;;24.80;36.70;;;;;;5033390;28;20479;-75
2023/04/27 10:03:41;;;;;;;9.20;2.42;;;24.80;36.30;;;;;;5033983;28;20116;-74
2023/04/27 10:06:44;;;;;;;4.93;1.50;;;25.10;36.60;;;;;;5033879;28;20048;-72
2023/04/27 10:09:10;;;;;;;5.95;1.70;;;22.70;36.00;;;;;;5033674;28;20052;-72
2023/04/27 10:11:43;;;;;;;4.53;1.35;;;22.70;37.00;;;;;;5032009;28;20033;-72
2023/04/27 10:14:16;;;;;;;6.95;2.25;;;23.60;37.40;;;;;;5033110;28;20041;-72
2023/04/27 10:16:48;;;;;;;4.95;1.55;;;24.90;36.50;;;;;;5033598;28;20124;-74
2023/04/27 10:19:14;;;;;;;4.93;2.45;;;24.30;35.00;;;;;;5032689;28;20502;-72
2023/04/27 10:22:07;;;;;;;2.58;1.25;;;24.90;35.10;;;;;;5031640;28;20033;-72
2023/04/27 10:24:40;;;;;;;4.25;1.73;;;24.40;33.40;;;;;;5031416;28;20033;-71
2023/04/27 10:27:11;;;;;;;13.18;6.82;;;23.30;33.40;;;;;;5032565;28;20049;-71
2023/04/27 10:29:41;;;;;;;7.05;3.25;;;23.70;34.30;;;;;;5033146;28;20111;-73
2023/04/27 10:32:28;;;;;;;4.80;1.85;;;23.50;34.70;;;;;;5032630;28;20041;-70
2023/04/27 10:35:07;;;;;;;2.25;1.40;;;23.00;34.10;;;;;;5032311;28;20033;-70
2023/04/27 10:37:41;;;;;;;2.47;1.40;;;21.80;34.90;;;;;;5032902;28;20017;-69
2023/04/27 10:40:18;;;;;;;4.50;1.75;;;21.60;35.80;;;;;;5032379;28;20155;-69
2023/04/27 10:42:45;;;;;;;4.60;2.40;;;21.70;36.20;;;;;;5032610;28;20329;-70
2023/04/27 10:45:12;;;;;;;2.60;1.50;;;21.00;36.50;;;;;;5032688;28;20032;-68
2023/04/27 10:47:43;;;;;;;4.50;1.50;;;20.80;36.40;;;;;;5032087;28;20041;-68
2023/04/27 10:50:12;;;;;;;5.00;1.45;;;20.50;35.70;;;;;;5032416;28;20029;-69
2023/04/27 10:52:42;;;;;;;5.65;1.33;;;20.00;36.50;;;;;;5032847;28;20044;-78
2023/04/27 10:55:19;;;;;;;6.32;1.70;;;19.80;37.20;;;;;;5032247;28;20037;-68
2023/04/27 10:57:50;;;;;;;3.38;1.63;;;19.50;36.80;;;;;;5031554;28;20033;-66
2023/04/27 11:00:25;;;;;;;4.13;1.85;;;19.10;37.70;;;;;;5031064;28;20041;-67
2023/04/27 11:02:52;;;;;;;5.30;1.85;;;19.30;37.40;;;;;;5030980;28;20113;-69
2023/04/27 11:05:24;;;;;;;2.63;1.37;;;19.00;37.30;;;;;;5032025;28;20496;-70
2023/04/27 11:07:51;;;;;;;5.13;1.60;;;18.70;37.60;;;;;;5031789;28;20030;-70
2023/04/27 11:10:18;;;;;;;3.53;1.10;;;18.50;37.80;;;;;;5031595;28;20049;-70
2023/04/27 11:12:44;;;;;;;4.57;1.25;;;18.40;37.80;;;;;;5031251;28;20494;-71
2023/04/27 11:15:11;;;;;;;6.22;1.35;;;18.10;38.20;;;;;;5031619;28;20041;-68
2023/04/27 11:17:37;;;;;;;3.92;2.10;;;17.80;38.20;;;;;;5031406;28;20061;-69
2023/04/27 11:20:07;;;;;;;5.05;1.48;;;17.90;38.70;;;;;;5031084;28;20440;-69
2023/04/27 11:22:42;;;;;;;4.38;1.65;;;17.60;38.20;;;;;;5031736;28;20437;-68
2023/04/27 11:25:08;;;;;;;2.22;1.25;;;17.10;38.50;;;;;;5029391;28;20030;-70
2023/04/27 11:27:39;;;;;;;4.50;1.45;;;17.10;39.30;;;;;;5029577;28;20483;-70
2023/04/27 11:30:17;;;;;;;3.20;1.33;;;17.30;39.00;;;;;;5030831;28;20482;-70
2023/04/27 11:32:43;;;;;;;2.30;1.27;;;17.40;39.20;;;;;;5030097;28;20493;-69
2023/04/27 11:35:09;;;;;;;5.05;1.50;;;16.50;39.30;;;;;;5030839;28;20032;-68
2023/04/27 11:37:35;;;;;;;6.70;2.30;;;16.60;40.50;;;;;;5031563;28;20074;-68
2023/04/27 11:40:00;;;;;;;2.53;1.40;;;16.90;40.50;;;;;;5029809;28;20120;-70
2023/04/27 11:42:27;;;;;;;7.45;2.10;;;16.90;40.20;;;;;;5030816;28;20026;-69
2023/04/27 11:44:57;;;;;;;5.07;1.67;;;16.80;40.90;;;;;;5029180;28;20036;-68
2023/04/27 11:47:24;;;;;;;3.92;1.63;;;16.70;41.10;;;;;;5030842;28;20156;-67
2023/04/27 11:49:51;;;;;;;8.77;3.78;;;16.70;41.20;;;;;;5031398;28;20029;-68
2023/04/27 11:52:17;;;;;;;5.83;2.13;;;16.70;41.30;;;;;;5030274;28;20065;-67
2023/04/27 11:55:05;;;;;;;5.80;2.03;;;16.70;41.00;;;;;;5030815;28;20034;-68
2023/04/27 11:57:33;;;;;;;5.88;1.60;;;16.70;41.00;;;;;;5030880;28;20039;-68
2023/04/27 12:00:01;;;;;;;3.53;1.52;;;16.70;41.00;;;;;;5030666;28;20045;-68
2023/04/27 12:02:28;;;;;;;4.93;2.00;;;16.70;41.00;;;;;;5030513;28;20037;-66
2023/04/27 12:04:54;;;;;;;3.10;1.38;;;16.80;41.30;;;;;;5030670;28;20035;-66
2023/04/27 12:07:20;;;;;;;5.93;1.98;;;16.80;41.30;;;;;;5030995;28;20021;-68
2023/04/27 12:09:45;;;;;;;6.88;1.73;;;16.70;40.80;;;;;;5029579;28;20040;-68
2023/04/27 12:12:17;;;;;;;8.30;2.00;;;16.60;41.10;;;;;;5030568;28;20033;-68
2023/04/27 12:14:43;;;;;;;4.30;1.60;;;16.50;41.30;;;;;;5030695;28;20412;-67
2023/04/27 12:17:09;;;;;;;4.05;1.40;;;16.40;41.00;;;;;;5030920;28;20444;-67
2023/04/27 12:19:36;;;;;;;1.75;1.17;;;16.30;41.20;;;;;;5031069;28;20025;-68
2023/04/27 12:22:02;;;;;;;7.32;1.90;;;16.30;41.20;;;;;;5029784;28;20033;-68
2023/04/27 12:24:27;;;;;;;5.47;1.58;;;16.10;41.00;;;;;;5029236;28;20049;-71
2023/04/27 12:26:53;;;;;;;9.52;2.40;;;16.10;41.40;;;;;;5029069;28;20041;-67
2023/04/27 12:29:19;;;;;;;5.65;1.58;;;16.10;41.40;;;;;;5030263;28;20037;-68
2023/04/27 12:31:45;;;;;;;7.07;1.67;;;16.10;40.50;;;;;;5030711;28;20045;-69
2023/04/27 12:34:11;;;;;;;2.03;1.35;;;16.10;40.70;;;;;;5030340;28;20407;-68
2023/04/27 12:36:36;;;;;;;3.58;1.15;;;15.80;40.80;;;;;;5030201;28;20030;-69
2023/04/27 12:39:18;;;;;;;2.83;1.60;;;15.90;41.50;;;;;;5031427;28;20038;-69
2023/04/27 12:41:45;;;;;;;2.90;1.20;;;16.00;41.40;;;;;;5030928;28;20036;-68
2023/04/27 12:44:11;;;;;;;2.80;1.55;;;16.10;40.80;;;;;;5035180;28;20033;-68
2023/04/27 12:46:38;;;;;;;3.58;1.48;;;16.10;40.50;;;;;;5035425;28;20029;-68